NKS364 LTFJ-LTFM
Flight info
| Callsign | NKS364 |
|---|---|
| Flight time | 0h 12m |
| Altitude | 6000 |
| Route | LTFJ/24R DCT LTBA DCT LTFM/35R |
| Aircraft | A20N/M-SDE3FGRWY/S |
Departure
| Time | 2026-05-07 17:45 |
|---|---|
| Airport | Istanbul Sabiha Gökçen International Airport (LTFJ) |
Arrival
| Time | 2026-05-07 17:57 |
|---|---|
| Airport | İstanbul Airport (LTFM) |
| Time | Latitude | Longitude | Altitude | Speed | Heading |
|---|---|---|---|---|---|
| 2026-05-07 17:31 | 40.90637 | 29.32230 | 321 ft | 0 kts | 154° |
| 2026-05-07 17:33 | 40.90641 | 29.32227 | 321 ft | 3 kts | 154° |
| 2026-05-07 17:33 | 40.90658 | 29.32217 | 321 ft | 3 kts | 154° |
| 2026-05-07 17:34 | 40.90675 | 29.32206 | 321 ft | 3 kts | 154° |
| 2026-05-07 17:34 | 40.90692 | 29.32195 | 321 ft | 3 kts | 154° |
| 2026-05-07 17:34 | 40.90709 | 29.32185 | 321 ft | 3 kts | 137° |
| 2026-05-07 17:34 | 40.90724 | 29.32174 | 319 ft | 3 kts | 195° |
| 2026-05-07 17:35 | 40.90730 | 29.32176 | 319 ft | 0 kts | 223° |
| 2026-05-07 17:37 | 40.90724 | 29.32169 | 320 ft | 4 kts | 224° |
| 2026-05-07 17:37 | 40.90699 | 29.32115 | 321 ft | 10 kts | 242° |
| 2026-05-07 17:37 | 40.90657 | 29.32004 | 321 ft | 16 kts | 244° |
| 2026-05-07 17:37 | 40.90619 | 29.31936 | 321 ft | 5 kts | 191° |
| 2026-05-07 17:38 | 40.90572 | 29.31943 | 321 ft | 9 kts | 161° |
| 2026-05-07 17:38 | 40.90500 | 29.31984 | 321 ft | 13 kts | 166° |
| 2026-05-07 17:38 | 40.90431 | 29.31923 | 320 ft | 12 kts | 247° |
| 2026-05-07 17:38 | 40.90386 | 29.31793 | 321 ft | 19 kts | 244° |
| 2026-05-07 17:39 | 40.90321 | 29.31617 | 321 ft | 24 kts | 244° |
| 2026-05-07 17:39 | 40.90239 | 29.31394 | 319 ft | 29 kts | 244° |
| 2026-05-07 17:39 | 40.90144 | 29.31135 | 321 ft | 33 kts | 245° |
| 2026-05-07 17:39 | 40.90049 | 29.30876 | 320 ft | 26 kts | 244° |
| 2026-05-07 17:40 | 40.89962 | 29.30645 | 320 ft | 30 kts | 243° |
| 2026-05-07 17:40 | 40.89861 | 29.30380 | 320 ft | 34 kts | 242° |
| 2026-05-07 17:40 | 40.89755 | 29.30083 | 320 ft | 37 kts | 243° |
| 2026-05-07 17:40 | 40.89637 | 29.29763 | 320 ft | 40 kts | 244° |
| 2026-05-07 17:41 | 40.89515 | 29.29431 | 319 ft | 26 kts | 244° |
| 2026-05-07 17:41 | 40.89453 | 29.29285 | 319 ft | 20 kts | 224° |
| 2026-05-07 17:41 | 40.89344 | 29.29288 | 320 ft | 0 kts | 156° |
| 2026-05-07 17:43 | 40.89330 | 29.29295 | 320 ft | 5 kts | 156° |
| 2026-05-07 17:44 | 40.89288 | 29.29339 | 321 ft | 9 kts | 122° |
| 2026-05-07 17:44 | 40.89294 | 29.29399 | 321 ft | 9 kts | 64° |
| 2026-05-07 17:44 | 40.89442 | 29.29800 | 320 ft | 99 kts | 64° |
| 2026-05-07 17:44 | 40.89881 | 29.30990 | 542 ft | 172 kts | 64° |
| 2026-05-07 17:45 | 40.90439 | 29.32450 | 1506 ft | 180 kts | 62° |
| 2026-05-07 17:45 | 40.91047 | 29.33922 | 2717 ft | 183 kts | 57° |
| 2026-05-07 17:45 | 40.91745 | 29.35386 | 3721 ft | 199 kts | 51° |
| 2026-05-07 17:45 | 40.92644 | 29.36910 | 4610 ft | 220 kts | 45° |
| 2026-05-07 17:46 | 40.93768 | 29.38393 | 5643 ft | 236 kts | 37° |
| 2026-05-07 17:46 | 40.95123 | 29.39702 | 6776 ft | 246 kts | 27° |
| 2026-05-07 17:46 | 40.96745 | 29.40518 | 7665 ft | 268 kts | 8° |
| 2026-05-07 17:46 | 40.98805 | 29.40505 | 7582 ft | 326 kts | 346° |
| 2026-05-07 17:47 | 41.00969 | 29.39403 | 7527 ft | 327 kts | 327° |
| 2026-05-07 17:47 | 41.02528 | 29.37434 | 7366 ft | 299 kts | 304° |
| 2026-05-07 17:47 | 41.03340 | 29.34830 | 6146 ft | 315 kts | 282° |
| 2026-05-07 17:47 | 41.03589 | 29.31966 | 5671 ft | 305 kts | 275° |
| 2026-05-07 17:48 | 41.03746 | 29.29245 | 5431 ft | 288 kts | 274° |
| 2026-05-07 17:48 | 41.03866 | 29.26656 | 5176 ft | 275 kts | 273° |
| 2026-05-07 17:48 | 41.03955 | 29.24178 | 4914 ft | 263 kts | 274° |
| 2026-05-07 17:48 | 41.04206 | 29.21852 | 4847 ft | 246 kts | 282° |
| 2026-05-07 17:49 | 41.04616 | 29.19735 | 4819 ft | 229 kts | 284° |
| 2026-05-07 17:49 | 41.05007 | 29.17769 | 4794 ft | 217 kts | 284° |
| 2026-05-07 17:49 | 41.05442 | 29.15594 | 4883 ft | 274 kts | 284° |
| 2026-05-07 17:49 | 41.05975 | 29.12935 | 5033 ft | 329 kts | 284° |
| 2026-05-07 17:50 | 41.06576 | 29.09947 | 5058 ft | 328 kts | 285° |
| 2026-05-07 17:50 | 41.07147 | 29.07123 | 4826 ft | 308 kts | 285° |
| 2026-05-07 17:50 | 41.07687 | 29.04462 | 4599 ft | 290 kts | 285° |
| 2026-05-07 17:50 | 41.08199 | 29.01957 | 4406 ft | 273 kts | 285° |
| 2026-05-07 17:51 | 41.08684 | 28.99594 | 4233 ft | 259 kts | 285° |
| 2026-05-07 17:51 | 41.09146 | 28.97353 | 4058 ft | 246 kts | 285° |
| 2026-05-07 17:51 | 41.09589 | 28.95217 | 3882 ft | 235 kts | 285° |
| 2026-05-07 17:51 | 41.10016 | 28.93169 | 3698 ft | 227 kts | 285° |
| 2026-05-07 17:52 | 41.10369 | 28.91480 | 3495 ft | 222 kts | 285° |
| 2026-05-07 17:52 | 41.10721 | 28.89785 | 3307 ft | 216 kts | 285° |
| 2026-05-07 17:53 | 41.11121 | 28.87852 | 3285 ft | 239 kts | 284° |
| 2026-05-07 17:53 | 41.11614 | 28.85438 | 3375 ft | 302 kts | 284° |
| 2026-05-07 17:53 | 41.12178 | 28.82655 | 3444 ft | 306 kts | 284° |
| 2026-05-07 17:53 | 41.12707 | 28.80307 | 3581 ft | 270 kts | 290° |
| 2026-05-07 17:54 | 41.13524 | 28.78390 | 3839 ft | 210 kts | 307° |
| 2026-05-07 17:54 | 41.14565 | 28.77216 | 3424 ft | 189 kts | 327° |
| 2026-05-07 17:54 | 41.15705 | 28.76473 | 2912 ft | 178 kts | 332° |
| 2026-05-07 17:54 | 41.16884 | 28.75987 | 2503 ft | 180 kts | 345° |
| 2026-05-07 17:55 | 41.18127 | 28.75879 | 2129 ft | 179 kts | 355° |
| 2026-05-07 17:55 | 41.19367 | 28.75899 | 1801 ft | 178 kts | 357° |
| 2026-05-07 17:55 | 41.20592 | 28.75887 | 1474 ft | 172 kts | 355° |
| 2026-05-07 17:55 | 41.21750 | 28.75789 | 1192 ft | 168 kts | 356° |
| 2026-05-07 17:56 | 41.22926 | 28.75774 | 803 ft | 169 kts | 357° |
| 2026-05-07 17:56 | 41.24055 | 28.75744 | 629 ft | 155 kts | 356° |
| 2026-05-07 17:56 | 41.25095 | 28.75696 | 399 ft | 147 kts | 355° |
| 2026-05-07 17:56 | 41.26088 | 28.75681 | 225 ft | 137 kts | 356° |
| 2026-05-07 17:57 | 41.26944 | 28.75654 | 182 ft | 89 kts | 359° |
| 2026-05-07 17:57 | 41.27268 | 28.75645 | 183 ft | 64 kts | 358° |
| 2026-05-07 17:57 | 41.27739 | 28.75641 | 183 ft | 45 kts | 359° |
| 2026-05-07 17:57 | 41.27948 | 28.75621 | 182 ft | 29 kts | 341° |
| 2026-05-07 17:58 | 41.28048 | 28.75566 | 182 ft | 0 kts | 332° |
| 2026-05-07 18:00 | 41.28083 | 28.75541 | 182 ft | 10 kts | 332° |
| 2026-05-07 18:01 | 41.28159 | 28.75463 | 183 ft | 16 kts | 292° |
| 2026-05-07 18:01 | 41.28092 | 28.75352 | 183 ft | 20 kts | 187° |
| 2026-05-07 18:01 | 41.27923 | 28.75351 | 183 ft | 28 kts | 179° |
| 2026-05-07 18:01 | 41.27703 | 28.75354 | 183 ft | 31 kts | 179° |
| 2026-05-07 18:02 | 41.27501 | 28.75359 | 183 ft | 0 kts | 178° |
| 2026-05-07 18:02 | 41.27499 | 28.75359 | 183 ft | 3 kts | 178° |
| 2026-05-07 18:03 | 41.27447 | 28.75355 | 183 ft | 11 kts | 195° |
| 2026-05-07 18:03 | 41.27408 | 28.75283 | 183 ft | 12 kts | 268° |
| 2026-05-07 18:03 | 41.27404 | 28.75133 | 183 ft | 20 kts | 268° |
| 2026-05-07 18:03 | 41.27402 | 28.74912 | 182 ft | 27 kts | 270° |
| 2026-05-07 18:04 | 41.27403 | 28.74722 | 182 ft | 4 kts | 270° |
| 2026-05-07 18:04 | 41.27404 | 28.74649 | 182 ft | 11 kts | 270° |
| 2026-05-07 18:04 | 41.27405 | 28.74504 | 181 ft | 20 kts | 270° |
| 2026-05-07 18:04 | 41.27407 | 28.74285 | 181 ft | 27 kts | 271° |
| 2026-05-07 18:05 | 41.27411 | 28.74004 | 181 ft | 33 kts | 271° |
| 2026-05-07 18:05 | 41.27400 | 28.73785 | 180 ft | 15 kts | 264° |
| 2026-05-07 18:05 | 41.27399 | 28.73776 | 180 ft | 0 kts | 256° |
| 2026-05-07 18:06 | 41.27400 | 28.73778 | 180 ft | 1 kts | 259° |
| 2026-05-07 18:06 | 41.27401 | 28.73784 | 180 ft | 1 kts | 274° |
| 2026-05-07 18:06 | 41.27400 | 28.73798 | 180 ft | 2 kts | 271° |
| 2026-05-07 18:06 | 41.27400 | 28.73819 | 180 ft | 2 kts | 263° |
| 2026-05-07 18:07 | 41.27394 | 28.73795 | 180 ft | 0 kts | 258° |
| 2026-05-07 18:08 | 41.27393 | 28.73788 | 180 ft | 4 kts | 258° |
| 2026-05-07 18:08 | 41.27391 | 28.73758 | 180 ft | 0 kts | 265° |
| 2026-05-07 18:11 | 41.27391 | 28.73757 | 180 ft | 1 kts | 265° |
| 2026-05-07 18:12 | 41.27390 | 28.73742 | 180 ft | 2 kts | 265° |
| 2026-05-07 18:12 | 41.27387 | 28.73700 | 180 ft | 6 kts | 267° |
| 2026-05-07 18:12 | 41.27392 | 28.73671 | 180 ft | 2 kts | 305° |
| 2026-05-07 18:12 | 41.27414 | 28.73657 | 180 ft | 6 kts | 358° |
| 2026-05-07 18:13 | 41.27447 | 28.73655 | 180 ft | 0 kts | 358° |